createdAt,value
2024-05-09T00:02:45.940Z,93.57
2024-05-09T00:06:50.282Z,94.50
2024-05-09T00:10:52.753Z,94.83
2024-05-09T00:14:54.639Z,93.95
2024-05-09T00:18:56.503Z,94.98
2024-05-09T00:23:01.309Z,94.36
2024-05-09T00:27:03.434Z,94.31
2024-05-09T00:31:05.111Z,94.17
2024-05-09T00:35:07.426Z,94.34
2024-05-09T00:39:11.875Z,94.68
2024-05-09T00:43:14.818Z,95.03
2024-05-09T00:47:17.445Z,95.29
2024-05-09T00:51:20.071Z,95.45
2024-05-09T00:55:24.701Z,95.55
2024-05-09T00:59:27.467Z,94.52
2024-05-09T01:03:29.677Z,95.90
2024-05-09T01:07:31.626Z,96.28
2024-05-09T01:11:36.732Z,95.09
2024-05-09T01:15:38.551Z,95.03
2024-05-09T01:19:42.031Z,95.83
2024-05-09T01:23:46.549Z,95.21
2024-05-09T01:27:48.306Z,94.93
2024-05-09T01:31:50.170Z,94.97
2024-05-09T01:35:52.209Z,95.04
2024-05-09T01:39:56.565Z,95.62
2024-05-09T01:43:58.425Z,95.55
2024-05-09T01:48:00.585Z,94.75
2024-05-09T01:52:02.769Z,95.22
2024-05-09T01:56:08.186Z,95.52
2024-05-09T02:00:15.539Z,94.89
2024-05-09T02:04:19.995Z,95.13
2024-05-09T02:08:22.409Z,95.74
2024-05-09T02:12:27.019Z,95.86
2024-05-09T02:16:28.850Z,95.59
2024-05-09T02:20:35.970Z,95.50
2024-05-09T02:24:38.733Z,95.21
2024-05-09T02:28:43.268Z,96.41
2024-05-09T02:32:45.274Z,95.84
2024-05-09T02:36:47.095Z,95.21
2024-05-09T02:40:48.930Z,95.67
2024-05-09T02:44:53.294Z,95.51
2024-05-09T02:48:55.163Z,95.72
2024-05-09T02:52:57.108Z,96.32
2024-05-09T02:56:58.904Z,95.94
2024-05-09T03:01:03.371Z,95.37
2024-05-09T03:05:05.649Z,95.59
2024-05-09T03:09:08.736Z,95.63
2024-05-09T03:13:14.555Z,95.43
2024-05-09T03:17:20.253Z,95.86
2024-05-09T03:21:22.033Z,96.21
2024-05-09T03:25:24.100Z,96.35
2024-05-09T03:29:26.020Z,96.93
2024-05-09T03:33:30.704Z,96.89
2024-05-09T03:37:32.577Z,95.52
2024-05-09T03:41:34.364Z,96.12
2024-05-09T03:45:36.262Z,95.87
2024-05-09T03:49:40.839Z,96.14
2024-05-09T03:53:42.604Z,96.41
2024-05-09T03:57:44.388Z,97.47
2024-05-09T04:01:46.352Z,97.50
2024-05-09T04:05:50.885Z,96.54
2024-05-09T04:09:52.639Z,96.38
2024-05-09T04:13:54.439Z,96.54
2024-05-09T04:17:56.494Z,96.87
2024-05-09T04:22:01.174Z,97.21
2024-05-09T04:26:02.955Z,97.22
2024-05-09T04:30:09.942Z,98.25
2024-05-09T04:34:14.628Z,98.47
2024-05-09T04:38:19.930Z,97.63
2024-05-09T04:42:21.725Z,97.69
2024-05-09T04:46:23.513Z,97.54
2024-05-09T04:50:35.128Z,97.51
2024-05-09T04:54:42.509Z,97.97
2024-05-09T04:58:44.810Z,97.50
2024-05-09T05:02:46.788Z,96.92
2024-05-09T05:06:48.622Z,96.92
2024-05-09T05:10:53.185Z,95.47
2024-05-09T05:14:55.181Z,93.90
2024-05-09T05:18:57.388Z,91.83
2024-05-09T05:22:59.238Z,88.66
2024-05-09T05:27:03.959Z,89.04
2024-05-09T05:31:05.654Z,87.52
2024-05-09T05:35:07.543Z,86.84
2024-05-09T05:39:09.362Z,84.52
2024-05-09T05:43:19.017Z,82.78
2024-05-09T05:47:21.083Z,81.36
2024-05-09T05:51:22.919Z,79.78
2024-05-09T05:55:24.655Z,77.54
2024-05-09T05:59:29.255Z,75.15
2024-05-09T06:03:31.203Z,75.10
2024-05-09T06:07:33.415Z,73.05
2024-05-09T06:11:35.562Z,70.86
2024-05-09T06:15:40.939Z,69.85
2024-05-09T06:19:43.110Z,67.63
2024-05-09T06:23:45.885Z,66.19
2024-05-09T06:27:47.773Z,65.01
2024-05-09T06:31:53.500Z,62.88
2024-05-09T06:35:55.850Z,63.46
2024-05-09T06:39:57.692Z,61.41
2024-05-09T06:43:59.632Z,59.66
2024-05-09T06:48:04.972Z,57.31
2024-05-09T06:52:06.906Z,56.18
2024-05-09T06:56:08.799Z,54.24
2024-05-09T07:00:22.696Z,52.22
2024-05-09T07:04:35.009Z,51.91
2024-05-09T07:08:37.968Z,51.86
2024-05-09T07:12:39.805Z,49.07
2024-05-09T07:16:41.592Z,50.15
2024-05-09T07:20:48.208Z,49.12
2024-05-09T07:24:50.583Z,49.26
2024-05-09T07:28:52.452Z,46.26
2024-05-09T07:32:54.500Z,45.01
2024-05-09T07:36:59.295Z,46.26
2024-05-09T07:41:01.010Z,47.15
2024-05-09T07:45:21.302Z,44.16
2024-05-09T07:53:40.841Z,43.58
2024-05-09T07:57:47.554Z,42.76
2024-05-09T08:01:49.676Z,42.09
2024-05-09T08:05:51.997Z,40.62
2024-05-09T08:09:56.491Z,40.24
2024-05-09T08:13:58.478Z,41.13
2024-05-09T08:18:00.496Z,40.19
2024-05-09T08:22:02.545Z,43.46
2024-05-09T08:26:06.955Z,42.02
2024-05-09T08:30:15.472Z,39.71
2024-05-09T08:34:24.666Z,38.22
2024-05-09T08:38:26.603Z,38.02
2024-05-09T08:42:32.432Z,39.18
2024-05-09T08:46:36.440Z,38.19
2024-05-09T08:50:40.757Z,37.93
2024-05-09T08:54:42.773Z,36.00
2024-05-09T08:58:49.319Z,33.96
2024-05-09T09:02:51.992Z,33.64
2024-05-09T09:06:58.381Z,33.91
2024-05-09T09:11:01.191Z,38.38
2024-05-09T09:15:05.991Z,38.50
2024-05-09T09:19:08.177Z,35.49
2024-05-09T09:23:10.160Z,33.71
2024-05-09T09:27:13.907Z,32.64
2024-05-09T09:31:19.846Z,31.48
2024-05-09T09:35:21.647Z,29.37
2024-05-09T09:39:27.835Z,25.28
2024-05-09T09:43:31.637Z,25.40
2024-05-09T09:47:37.737Z,24.48
2024-05-09T09:51:41.590Z,23.89
2024-05-09T09:55:43.566Z,23.72
2024-05-09T09:59:49.831Z,23.46
2024-05-09T10:03:54.529Z,24.21
2024-05-09T10:07:58.286Z,23.45
2024-05-09T10:12:09.608Z,20.69
2024-05-09T10:16:12.250Z,26.04
2024-05-09T10:20:21.945Z,26.95
2024-05-09T10:24:27.213Z,22.67
2024-05-09T10:28:30.985Z,23.03
2024-05-09T10:32:38.264Z,22.17
2024-05-09T10:36:44.045Z,22.79
2024-05-09T10:40:46.202Z,22.38
2024-05-09T10:44:48.171Z,22.79
2024-05-09T10:48:50.735Z,22.95
2024-05-09T10:52:55.445Z,22.95
2024-05-09T10:56:57.442Z,21.84
2024-05-09T11:01:00.661Z,23.40
2024-05-09T11:05:04.782Z,22.68
2024-05-09T11:09:10.112Z,23.69
2024-05-09T11:13:12.353Z,25.05
2024-05-09T11:17:14.216Z,25.99
2024-05-09T11:21:16.040Z,25.80
2024-05-09T11:25:20.539Z,27.86
2024-05-09T11:29:22.279Z,28.21
2024-05-09T11:33:24.368Z,24.52
2024-05-09T11:37:26.412Z,24.34
2024-05-09T11:41:32.201Z,25.88
2024-05-09T11:45:34.207Z,25.76
2024-05-09T11:49:36.181Z,22.30
2024-05-09T11:53:38.205Z,21.29
2024-05-09T11:57:42.639Z,20.38
2024-05-09T12:01:44.517Z,19.07
2024-05-09T12:05:46.634Z,19.64
2024-05-09T12:09:48.376Z,20.03
2024-05-09T12:13:52.908Z,23.98
2024-05-09T12:17:55.974Z,23.25
2024-05-09T12:21:59.162Z,20.41
2024-05-09T12:26:01.057Z,20.40
2024-05-09T12:30:09.048Z,25.33
2024-05-09T12:34:13.793Z,20.92
2024-05-09T12:38:15.799Z,25.29
2024-05-09T12:42:26.562Z,22.18
2024-05-09T12:46:32.581Z,25.58
2024-05-09T12:50:34.947Z,22.33
2024-05-09T12:54:37.092Z,19.36
2024-05-09T12:58:38.935Z,21.14
2024-05-09T13:02:43.514Z,19.26
2024-05-09T13:06:45.464Z,18.88
2024-05-09T13:10:47.896Z,17.95
2024-05-09T13:14:49.875Z,18.29
2024-05-09T13:18:54.379Z,21.24
2024-05-09T13:22:56.238Z,18.66
2024-05-09T13:26:58.080Z,16.73
2024-05-09T13:30:59.874Z,17.22
2024-05-09T13:35:04.700Z,19.18
2024-05-09T13:39:06.595Z,19.00
2024-05-09T13:43:08.326Z,24.26
2024-05-09T13:47:10.388Z,27.12
2024-05-09T13:51:14.755Z,29.42
2024-05-09T13:55:16.678Z,31.08
2024-05-09T13:59:18.492Z,33.63
2024-05-09T14:03:21.059Z,36.70
2024-05-09T14:07:25.931Z,38.97
2024-05-09T14:11:27.692Z,39.97
2024-05-09T14:15:29.523Z,33.14
2024-05-09T14:19:31.360Z,34.56
2024-05-09T14:23:35.758Z,32.49
2024-05-09T14:27:37.685Z,30.68
2024-05-09T14:31:39.854Z,31.96
2024-05-09T14:35:41.801Z,30.40
2024-05-09T14:39:46.237Z,33.93
2024-05-09T14:43:47.998Z,32.84
2024-05-09T14:47:50.001Z,32.60
2024-05-09T14:51:51.796Z,33.63
2024-05-09T14:55:56.316Z,33.79
2024-05-09T14:59:58.115Z,33.94
2024-05-09T15:03:59.905Z,33.39
2024-05-09T15:08:01.728Z,35.15
2024-05-09T15:12:06.486Z,34.21
2024-05-09T15:16:08.368Z,35.09
2024-05-09T15:20:16.771Z,37.49
2024-05-09T15:24:19.419Z,36.94
2024-05-09T15:28:24.011Z,37.40
2024-05-09T15:32:26.267Z,38.28
2024-05-09T15:36:28.097Z,37.42
2024-05-09T15:40:37.245Z,38.88
2024-05-09T15:44:44.252Z,40.18
2024-05-09T15:48:46.195Z,37.43
2024-05-09T15:52:48.087Z,38.45
2024-05-09T15:56:49.856Z,39.33
2024-05-09T16:00:54.602Z,37.35
2024-05-09T16:04:56.565Z,38.66
2024-05-09T16:08:58.420Z,39.43
2024-05-09T16:13:00.234Z,42.21
2024-05-09T16:17:05.310Z,43.69
2024-05-09T16:21:08.002Z,45.01
2024-05-09T16:25:09.760Z,44.75
2024-05-09T16:29:11.657Z,43.03
2024-05-09T16:33:16.193Z,44.07
2024-05-09T16:37:18.140Z,46.03
2024-05-09T16:41:20.023Z,47.26
2024-05-09T16:45:21.868Z,43.80
2024-05-09T16:49:26.795Z,49.07
2024-05-09T16:53:28.606Z,47.66
2024-05-09T16:57:30.466Z,49.64
2024-05-09T17:01:32.334Z,50.23
2024-05-09T17:05:37.242Z,48.67
2024-05-09T17:09:39.375Z,47.67
2024-05-09T17:13:41.106Z,49.81
2024-05-09T17:17:42.953Z,51.79
2024-05-09T17:21:47.457Z,51.58
2024-05-09T17:25:49.340Z,54.74
2024-05-09T17:29:51.128Z,47.72
2024-05-09T17:33:53.293Z,50.20
2024-05-09T17:37:58.484Z,48.51
2024-05-09T17:42:00.247Z,49.42
2024-05-09T17:46:02.239Z,54.84
2024-05-09T17:50:04.489Z,49.60
2024-05-09T17:54:09.268Z,55.76
2024-05-09T17:58:12.578Z,53.26
2024-05-09T18:02:14.503Z,55.76
2024-05-09T18:06:16.302Z,50.34
2024-05-09T18:10:25.996Z,55.74
2024-05-09T18:14:34.818Z,52.91
2024-05-09T18:18:36.834Z,56.19
2024-05-09T18:22:38.716Z,56.61
2024-05-09T18:26:43.192Z,58.46
2024-05-09T18:30:45.125Z,57.37
2024-05-09T18:34:47.138Z,57.39
2024-05-09T18:38:49.062Z,57.29
2024-05-09T18:42:53.521Z,59.23
2024-05-09T18:46:55.263Z,54.08
2024-05-09T18:50:57.052Z,56.95
2024-05-09T18:54:58.875Z,55.64
2024-05-09T18:59:03.170Z,61.63
2024-05-09T19:03:06.616Z,58.51
2024-05-09T19:07:08.780Z,61.79
2024-05-09T19:11:11.630Z,61.09
2024-05-09T19:15:16.084Z,63.66
2024-05-09T19:19:18.068Z,61.41
2024-05-09T19:23:19.864Z,63.87
2024-05-09T19:27:22.816Z,62.81
2024-05-09T19:31:27.510Z,61.67
2024-05-09T19:35:29.320Z,61.30
2024-05-09T19:39:31.291Z,61.09
2024-05-09T19:43:36.035Z,60.88
2024-05-09T19:47:41.066Z,61.13
2024-05-09T19:51:42.913Z,60.79
2024-05-09T19:55:44.923Z,60.97
2024-05-09T19:59:46.639Z,61.14
2024-05-09T20:03:51.244Z,62.72
2024-05-09T20:07:53.080Z,63.96
2024-05-09T20:11:54.980Z,64.00
2024-05-09T20:15:56.865Z,65.22
2024-05-09T20:20:01.918Z,64.01
2024-05-09T20:24:03.918Z,64.37
2024-05-09T20:28:06.273Z,64.33
2024-05-09T20:32:08.467Z,63.55
2024-05-09T20:36:12.954Z,64.71
2024-05-09T20:40:21.258Z,64.97
2024-05-09T20:44:27.362Z,64.66
2024-05-09T20:48:31.039Z,64.68
2024-05-09T20:52:36.393Z,64.22
2024-05-09T20:56:38.100Z,63.97
2024-05-09T21:00:43.276Z,64.65
2024-05-09T21:04:47.159Z,63.71
2024-05-09T21:08:51.620Z,64.48
2024-05-09T21:12:53.643Z,64.66
2024-05-09T21:16:55.808Z,65.73
2024-05-09T21:20:57.707Z,64.94
2024-05-09T21:25:02.300Z,65.74
2024-05-09T21:29:05.139Z,66.02
2024-05-09T21:33:07.766Z,65.34
2024-05-09T21:37:09.778Z,65.48
2024-05-09T21:41:14.212Z,65.94
2024-05-09T21:45:16.103Z,66.45
2024-05-09T21:49:18.083Z,66.75
2024-05-09T21:53:20.114Z,67.30
2024-05-09T21:57:24.651Z,66.62
2024-05-09T22:01:26.640Z,67.22
2024-05-09T22:05:28.725Z,67.55
2024-05-09T22:09:30.562Z,68.05
2024-05-09T22:13:35.189Z,67.96
2024-05-09T22:17:39.274Z,68.41
2024-05-09T22:21:41.188Z,68.64
2024-05-09T22:25:43.040Z,68.84
2024-05-09T22:29:47.520Z,69.58
2024-05-09T22:33:49.479Z,69.68
2024-05-09T22:37:51.370Z,70.46
2024-05-09T22:41:53.218Z,70.78
2024-05-09T22:45:57.691Z,70.71
2024-05-09T22:49:59.538Z,70.77
2024-05-09T22:54:03.784Z,70.82
2024-05-09T22:58:05.585Z,71.40
2024-05-09T23:02:10.224Z,72.45
2024-05-09T23:06:12.241Z,72.00
2024-05-09T23:10:20.999Z,72.35
2024-05-09T23:14:28.968Z,73.54
2024-05-09T23:18:33.490Z,73.14
2024-05-09T23:22:35.316Z,72.69
2024-05-09T23:26:41.484Z,73.73
2024-05-09T23:30:43.375Z,74.20
2024-05-09T23:34:47.923Z,74.52
2024-05-09T23:38:49.602Z,74.62
2024-05-09T23:42:51.432Z,74.39
2024-05-09T23:46:53.351Z,74.78
2024-05-09T23:50:57.775Z,74.57
2024-05-09T23:54:59.766Z,74.53
2024-05-09T23:59:01.575Z,75.10
